Time;durP1;ratioP1;P1;durP2;ratioP2;P2;SDS_P1;SDS_P2;PMS_P1;PMS_P2;Temp;Humidity;BMP_temperature;BMP_pressure;BME280_temperature;BME280_humidity;BME280_pressure;Samples;Min_cycle;Max_cycle;Signal;HPM_P1;HPM_P2
2022/01/06 00:01:25;;;;;;;8.65;2.92;;;4.00;99.90;;;;;;4940433;28;20073;-79
2022/01/06 00:03:52;;;;;;;13.70;3.38;;;4.00;99.90;;;;;;4939024;28;20424;-79
2022/01/06 00:06:18;;;;;;;10.68;3.88;;;4.00;99.90;;;;;;4940131;29;20167;-79
2022/01/06 00:08:44;;;;;;;;;;;4.00;99.90;;;;;;4940712;28;20334;-79
2022/01/06 00:11:11;;;;;;;10.65;2.92;;;4.00;99.90;;;;;;4940069;29;19929;-78
2022/01/06 00:16:42;;;;;;;18.48;3.65;;;4.00;99.90;;;;;;4940512;29;20108;-79
2022/01/06 00:24:20;;;;;;;8.88;2.72;;;4.00;99.90;;;;;;4941233;29;20439;-79
2022/01/06 00:26:47;;;;;;;12.75;2.65;;;4.00;99.90;;;;;;4940381;29;20058;-79
2022/01/06 00:29:12;;;;;;;15.13;3.30;;;4.00;99.90;;;;;;4937510;28;20034;-79
2022/01/06 00:31:38;;;;;;;10.27;3.75;;;4.00;99.90;;;;;;4940590;28;20028;-78
2022/01/06 00:34:05;;;;;;;20.98;3.08;;;4.00;99.90;;;;;;4939281;29;20039;-78
2022/01/06 00:36:30;;;;;;;12.02;2.42;;;4.00;99.90;;;;;;4940087;28;20023;-79
2022/01/06 00:38:56;;;;;;;11.88;2.08;;;4.10;99.90;;;;;;4939742;29;20489;-79
2022/01/06 00:41:22;;;;;;;;;;;4.00;99.90;;;;;;4940748;29;20027;-78
2022/01/06 00:43:48;;;;;;;7.28;3.10;;;4.10;99.90;;;;;;4938962;29;20088;-78
2022/01/06 00:46:13;;;;;;;12.93;2.17;;;4.00;99.90;;;;;;4940547;28;20320;-78
2022/01/06 00:48:39;;;;;;;;;;;3.90;99.90;;;;;;4940761;29;20125;-79
2022/01/06 00:51:04;;;;;;;10.23;4.82;;;3.80;99.90;;;;;;4939932;28;20634;-79
2022/01/06 00:53:30;;;;;;;15.38;3.97;;;3.60;99.90;;;;;;4939152;29;20023;-79
2022/01/06 00:55:55;;;;;;;7.10;1.15;;;3.50;99.90;;;;;;4939697;28;20027;-79
2022/01/06 00:58:21;;;;;;;9.40;1.45;;;3.30;99.90;;;;;;4939139;29;20484;-79
2022/01/06 01:00:46;;;;;;;1.17;0.57;;;3.10;99.90;;;;;;4938650;28;20027;-80
2022/01/06 01:03:17;;;;;;;2.65;0.50;;;3.00;99.90;;;;;;4938660;28;20031;-80
2022/01/06 01:05:45;;;;;;;1.38;1.00;;;2.70;99.90;;;;;;4939421;29;20039;-80
2022/01/06 01:08:11;;;;;;;2.28;0.30;;;2.50;99.90;;;;;;4953663;28;20574;-79
2022/01/06 01:10:37;;;;;;;;;;;2.30;99.90;;;;;;4940854;29;20047;-78
2022/01/06 01:13:03;;;;;;;3.05;0.40;;;2.20;99.90;;;;;;4938887;28;19950;-79
2022/01/06 01:15:32;;;;;;;;;;;2.20;99.90;;;;;;4939091;29;20118;-79
2022/01/06 01:18:05;;;;;;;3.72;0.40;;;2.10;99.90;;;;;;4938931;28;19919;-79
2022/01/06 01:20:32;;;;;;;0.80;0.52;;;2.10;99.90;;;;;;4939350;29;20123;-79
2022/01/06 01:22:58;;;;;;;1.13;0.70;;;2.10;99.90;;;;;;4939236;28;20067;-80
2022/01/06 01:25:23;;;;;;;0.90;0.30;;;2.10;99.90;;;;;;4939854;29;20027;-79
2022/01/06 01:27:49;;;;;;;1.60;0.55;;;2.20;99.90;;;;;;4939889;28;20103;-79
2022/01/06 01:30:15;;;;;;;3.53;0.47;;;2.10;99.90;;;;;;4939078;28;20023;-79
2022/01/06 01:32:49;;;;;;;0.50;0.30;;;2.10;99.90;;;;;;4938107;28;20043;-79
2022/01/06 01:35:15;;;;;;;1.95;0.50;;;2.10;99.90;;;;;;4938030;29;20063;-79
2022/01/06 01:37:40;;;;;;;1.75;0.30;;;2.00;99.90;;;;;;4939127;29;20066;-79
2022/01/06 01:40:08;;;;;;;1.88;0.50;;;2.00;99.90;;;;;;4938871;28;20032;-79
2022/01/06 01:42:34;;;;;;;5.63;0.45;;;2.00;99.90;;;;;;4939439;29;20063;-79
2022/01/06 01:45:02;;;;;;;;;;;2.00;99.90;;;;;;4938823;28;20121;-79
2022/01/06 01:47:37;;;;;;;1.27;0.50;;;2.00;99.90;;;;;;4939908;29;19922;-79
2022/01/06 01:50:12;;;;;;;2.15;0.30;;;2.00;99.90;;;;;;4939386;28;20033;-79
2022/01/06 01:52:47;;;;;;;2.33;0.37;;;2.00;99.90;;;;;;4939257;29;20031;-79
2022/01/06 01:55:15;;;;;;;8.27;0.93;;;2.00;99.90;;;;;;4937913;29;20039;-78
2022/01/06 01:57:41;;;;;;;2.65;0.55;;;2.00;99.90;;;;;;4939269;29;20035;-79
2022/01/06 02:00:10;;;;;;;0.82;0.40;;;2.00;99.90;;;;;;4939494;28;20035;-79
2022/01/06 02:02:36;;;;;;;8.05;0.70;;;2.00;99.90;;;;;;4942387;29;20047;-79
2022/01/06 02:05:02;;;;;;;4.38;0.40;;;2.00;99.90;;;;;;4941460;28;20035;-78
2022/01/06 02:07:28;;;;;;;3.85;0.30;;;2.00;99.90;;;;;;4942771;29;20047;-78
2022/01/06 02:09:53;;;;;;;0.85;0.35;;;2.00;99.90;;;;;;4941847;29;20432;-78
2022/01/06 02:12:28;;;;;;;1.02;0.30;;;1.90;99.90;;;;;;4943522;29;20034;-78
2022/01/06 02:14:53;;;;;;;3.45;0.22;;;1.90;99.90;;;;;;4942234;28;20024;-78
2022/01/06 02:17:19;;;;;;;2.10;0.40;;;1.90;99.90;;;;;;4942903;28;20399;-78
2022/01/06 02:19:51;;;;;;;;;;;1.90;99.90;;;;;;4942967;28;20125;-78
2022/01/06 02:22:16;;;;;;;3.40;0.30;;;1.90;99.90;;;;;;4942863;29;19914;-78
2022/01/06 02:24:41;;;;;;;2.42;0.40;;;1.80;99.90;;;;;;4940631;28;20052;-78
2022/01/06 02:27:07;;;;;;;1.70;0.68;;;1.80;99.90;;;;;;4942660;29;20078;-78
2022/01/06 02:29:32;;;;;;;1.08;0.50;;;1.80;99.90;;;;;;4941575;29;20506;-78
2022/01/06 02:31:58;;;;;;;2.40;0.30;;;1.80;99.90;;;;;;4942637;28;20038;-78
2022/01/06 02:34:23;;;;;;;;;;;1.70;99.90;;;;;;4944055;29;20463;-78
2022/01/06 02:36:49;;;;;;;4.50;0.50;;;1.70;99.90;;;;;;4941366;28;19917;-78
2022/01/06 02:39:15;;;;;;;1.50;0.50;;;1.60;99.90;;;;;;4942723;28;20019;-78
2022/01/06 02:41:40;;;;;;;2.22;0.30;;;1.50;99.90;;;;;;4941385;29;20404;-78
2022/01/06 02:44:06;;;;;;;1.63;0.40;;;1.50;99.90;;;;;;4941654;28;20411;-78
2022/01/06 02:46:31;;;;;;;;;;;1.40;99.90;;;;;;4941593;28;20119;-77
2022/01/06 02:48:57;;;;;;;2.42;0.38;;;1.40;99.90;;;;;;4941726;29;19919;-77
2022/01/06 02:51:22;;;;;;;5.78;1.08;;;1.30;99.90;;;;;;4942335;29;20046;-79
2022/01/06 02:53:52;;;;;;;1.75;0.28;;;1.30;99.90;;;;;;4942620;28;20488;-79
2022/01/06 02:56:18;;;;;;;1.75;0.30;;;1.20;99.90;;;;;;4942380;29;20075;-79
2022/01/06 02:58:44;;;;;;;2.80;0.40;;;1.20;99.90;;;;;;4941303;28;20039;-78
2022/01/06 03:01:09;;;;;;;1.02;0.30;;;1.10;99.90;;;;;;4941475;29;20396;-78
2022/01/06 03:03:35;;;;;;;;;;;1.10;99.90;;;;;;4943441;29;20197;-78
2022/01/06 03:06:00;;;;;;;3.58;0.50;;;1.10;99.90;;;;;;4941109;28;19953;-78
2022/01/06 03:08:27;;;;;;;2.95;0.47;;;1.00;99.90;;;;;;4941719;28;20031;-77
2022/01/06 03:10:54;;;;;;;4.85;0.20;;;1.00;99.90;;;;;;4940116;29;20668;-77
2022/01/06 03:13:19;;;;;;;0.60;0.30;;;0.90;99.90;;;;;;4941895;28;20039;-77
2022/01/06 03:15:45;;;;;;;2.45;0.32;;;0.90;99.90;;;;;;4941080;29;20019;-77
2022/01/06 03:18:10;;;;;;;;;;;0.90;99.90;;;;;;4942247;28;20042;-77
2022/01/06 03:20:36;;;;;;;2.58;0.30;;;0.80;99.90;;;;;;4941299;28;20186;-77
2022/01/06 03:23:01;;;;;;;1.70;0.43;;;0.80;99.90;;;;;;4941545;28;20118;-76
2022/01/06 03:25:27;;;;;;;2.13;0.30;;;0.80;99.90;;;;;;4941317;28;20496;-76
2022/01/06 03:27:52;;;;;;;1.50;0.40;;;0.80;99.90;;;;;;4941577;28;20142;-76
2022/01/06 03:30:21;;;;;;;1.38;0.40;;;0.80;99.90;;;;;;4939787;28;20035;-76
2022/01/06 03:32:47;;;;;;;1.63;0.70;;;0.70;99.90;;;;;;4942019;29;20035;-76
2022/01/06 03:35:13;;;;;;;;;;;0.70;99.90;;;;;;4942357;29;20055;-76
2022/01/06 03:37:40;;;;;;;3.08;0.40;;;0.70;99.90;;;;;;4941485;28;19950;-76
2022/01/06 03:40:06;;;;;;;2.92;0.30;;;0.60;99.90;;;;;;4941495;29;20050;-76
2022/01/06 03:42:36;;;;;;;1.38;0.52;;;0.60;99.90;;;;;;4940871;29;20278;-76
2022/01/06 03:45:07;;;;;;;0.98;0.38;;;0.70;99.90;;;;;;4940640;29;20035;-76
2022/01/06 03:47:33;;;;;;;3.20;0.57;;;0.60;99.90;;;;;;4939501;29;20035;-76
2022/01/06 03:49:58;;;;;;;4.15;1.00;;;0.60;99.90;;;;;;4940871;29;20034;-76
2022/01/06 03:52:24;;;;;;;1.33;0.52;;;0.60;99.90;;;;;;4941427;29;20050;-76
2022/01/06 03:54:51;;;;;;;2.10;0.70;;;0.60;99.90;;;;;;4939631;28;20447;-76
2022/01/06 03:57:16;;;;;;;3.55;0.82;;;0.60;99.90;;;;;;4940383;29;20035;-76
2022/01/06 03:59:42;;;;;;;2.58;0.80;;;0.60;99.90;;;;;;4939889;29;20035;-76
2022/01/06 04:02:07;;;;;;;3.85;2.58;;;0.60;99.90;;;;;;4939372;28;20070;-76
2022/01/06 04:04:33;;;;;;;2.88;1.33;;;0.50;99.90;;;;;;4939915;29;20032;-76
2022/01/06 04:06:58;;;;;;;4.53;1.02;;;0.50;99.90;;;;;;4940246;29;20400;-76
2022/01/06 04:09:24;;;;;;;5.50;1.38;;;0.50;99.90;;;;;;4940564;28;20031;-75
2022/01/06 04:11:49;;;;;;;6.45;0.80;;;0.50;99.90;;;;;;4956142;23;20056;-75
2022/01/06 04:14:15;;;;;;;5.40;1.02;;;0.50;99.90;;;;;;4944175;28;20023;-76
2022/01/06 04:16:41;;;;;;;4.00;1.00;;;0.50;99.90;;;;;;4944768;28;20040;-76
2022/01/06 04:19:07;;;;;;;3.33;1.40;;;0.50;99.90;;;;;;4942938;28;20031;-76
2022/01/06 04:21:34;;;;;;;7.53;1.17;;;0.50;99.90;;;;;;4942446;28;20502;-76
2022/01/06 04:23:59;;;;;;;2.72;0.68;;;0.50;99.90;;;;;;4942099;29;20561;-76
2022/01/06 04:26:25;;;;;;;2.72;0.90;;;0.40;99.90;;;;;;4942093;28;20042;-76
2022/01/06 04:28:51;;;;;;;3.83;1.08;;;0.40;99.90;;;;;;4941172;28;20403;-76
2022/01/06 04:31:17;;;;;;;1.90;0.80;;;0.40;99.90;;;;;;4942266;28;20032;-76
2022/01/06 04:33:42;;;;;;;2.70;1.00;;;0.40;99.90;;;;;;4941523;29;20023;-76
2022/01/06 04:36:08;;;;;;;5.72;1.15;;;0.40;99.90;;;;;;4941758;28;20071;-76
2022/01/06 04:38:36;;;;;;;9.20;2.55;;;0.40;99.90;;;;;;4942074;29;20031;-76
2022/01/06 04:41:01;;;;;;;6.95;1.23;;;0.40;99.90;;;;;;4942033;28;20038;-77
2022/01/06 04:43:27;;;;;;;4.55;1.33;;;0.50;99.90;;;;;;4941018;28;20031;-76
2022/01/06 04:45:52;;;;;;;4.38;1.05;;;0.40;99.90;;;;;;4942446;28;20393;-76
2022/01/06 04:48:18;;;;;;;;;;;0.40;99.90;;;;;;4941306;29;20159;-75
2022/01/06 04:50:43;;;;;;;8.30;2.40;;;0.40;99.90;;;;;;4941772;29;20006;-76
2022/01/06 04:53:09;;;;;;;2.67;1.13;;;0.40;99.90;;;;;;4940851;28;20421;-76
2022/01/06 04:55:34;;;;;;;1.83;0.65;;;0.40;99.90;;;;;;4942103;28;20027;-75
2022/01/06 04:58:00;;;;;;;4.85;1.83;;;0.40;99.90;;;;;;4942268;28;20036;-75
2022/01/06 05:00:26;;;;;;;3.67;0.88;;;0.40;99.90;;;;;;4941112;28;20523;-76
2022/01/06 05:02:52;;;;;;;2.03;0.60;;;0.40;99.90;;;;;;4940542;29;20489;-75
2022/01/06 05:05:17;;;;;;;3.20;1.23;;;0.40;99.90;;;;;;4940976;28;20043;-76
2022/01/06 05:07:44;;;;;;;6.55;2.30;;;0.40;99.90;;;;;;4941052;28;20423;-75
2022/01/06 05:10:10;;;;;;;10.50;3.72;;;0.40;99.90;;;;;;4941135;28;20038;-75
2022/01/06 05:12:41;;;;;;;;;;;0.40;99.90;;;;;;4940453;28;20035;-75
2022/01/06 05:15:09;;;;;;;20.70;5.20;;;0.50;99.90;;;;;;4940777;28;21950;-75
2022/01/06 05:17:34;;;;;;;24.23;11.82;;;0.40;99.90;;;;;;4943008;28;20031;-75
2022/01/06 05:20:00;;;;;;;10.32;4.97;;;0.40;99.90;;;;;;4939901;28;20163;-75
2022/01/06 05:22:27;;;;;;;13.15;5.22;;;0.50;99.90;;;;;;4941569;28;20044;-75
2022/01/06 05:24:53;;;;;;;10.95;4.65;;;0.50;99.90;;;;;;4941484;28;20227;-75
2022/01/06 05:27:19;;;;;;;7.13;3.75;;;0.50;99.90;;;;;;4941807;28;20031;-75
2022/01/06 05:29:44;;;;;;;12.68;5.32;;;0.50;99.90;;;;;;4940457;28;20027;-78
2022/01/06 05:32:11;;;;;;;;;;;0.60;99.90;;;;;;4941613;28;20039;-77
2022/01/06 05:34:36;;;;;;;9.02;3.67;;;0.70;99.90;;;;;;4940852;28;19911;-77
2022/01/06 05:37:02;;;;;;;26.50;12.73;;;0.70;99.90;;;;;;4941184;28;20472;-77
2022/01/06 05:39:28;;;;;;;6.85;1.63;;;0.90;99.90;;;;;;4940766;28;20037;-77
2022/01/06 05:41:53;;;;;;;6.53;2.17;;;1.50;99.90;;;;;;4940567;28;20358;-77
2022/01/06 05:44:19;;;;;;;5.70;1.92;;;1.50;99.90;;;;;;4940252;28;20543;-76
2022/01/06 05:46:47;;;;;;;4.20;1.17;;;1.30;99.90;;;;;;4942225;28;20062;-77
2022/01/06 05:49:16;;;;;;;5.45;1.65;;;1.20;99.90;;;;;;4936345;28;20071;-77
2022/01/06 05:51:42;;;;;;;4.90;1.63;;;1.10;99.90;;;;;;4940052;28;20460;-77
2022/01/06 05:54:08;;;;;;;5.18;3.05;;;1.10;99.90;;;;;;4940710;29;20051;-77
2022/01/06 05:56:33;;;;;;;3.63;1.77;;;1.10;99.90;;;;;;4940329;29;20051;-78
2022/01/06 05:58:59;;;;;;;;;;;1.00;99.90;;;;;;4940864;28;20265;-76
2022/01/06 06:01:24;;;;;;;8.15;2.40;;;1.00;99.90;;;;;;4940117;28;19918;-77
2022/01/06 06:03:50;;;;;;;5.30;2.10;;;1.00;99.90;;;;;;4940616;28;20091;-77
2022/01/06 06:06:16;;;;;;;7.25;2.42;;;1.00;99.90;;;;;;4940311;29;20038;-76
2022/01/06 06:08:41;;;;;;;5.18;1.30;;;1.00;99.90;;;;;;4939571;28;20555;-77
2022/01/06 06:11:07;;;;;;;3.58;0.93;;;1.10;99.90;;;;;;4940207;29;20037;-76
2022/01/06 06:13:33;;;;;;;2.17;0.90;;;1.10;99.90;;;;;;4940796;28;20119;-76
2022/01/06 06:15:59;;;;;;;5.70;1.50;;;1.10;99.90;;;;;;4940373;29;20031;-77
2022/01/06 06:18:24;;;;;;;2.70;1.05;;;1.20;99.90;;;;;;4938647;28;20031;-75
2022/01/06 06:20:50;;;;;;;7.90;2.00;;;1.20;99.90;;;;;;4939377;28;20028;-75
2022/01/06 06:23:16;;;;;;;6.03;1.13;;;1.20;99.90;;;;;;4940605;28;20075;-75
2022/01/06 06:25:41;;;;;;;4.35;1.63;;;1.20;99.90;;;;;;4938682;28;20027;-75
2022/01/06 06:28:07;;;;;;;7.63;1.75;;;1.20;99.90;;;;;;4940103;29;20040;-75
2022/01/06 06:30:32;;;;;;;;;;;1.20;99.90;;;;;;4939835;29;20218;-75
2022/01/06 06:33:00;;;;;;;3.58;1.33;;;1.20;99.90;;;;;;4938972;28;19914;-75
2022/01/06 06:35:25;;;;;;;6.00;1.40;;;1.20;99.90;;;;;;4939269;29;20154;-75
2022/01/06 06:37:51;;;;;;;5.15;1.15;;;1.30;99.90;;;;;;4940022;28;20028;-76
2022/01/06 06:40:19;;;;;;;2.75;1.40;;;1.20;99.90;;;;;;4939420;28;20372;-76
2022/01/06 06:42:44;;;;;;;2.90;2.03;;;1.20;99.90;;;;;;4939957;28;20031;-76
2022/01/06 06:45:10;;;;;;;3.92;1.48;;;1.30;99.90;;;;;;4940445;28;20042;-76
2022/01/06 06:47:35;;;;;;;3.53;1.33;;;1.30;99.90;;;;;;4943774;28;20070;-76
2022/01/06 06:50:01;;;;;;;2.85;1.17;;;1.30;99.90;;;;;;4943143;29;20023;-76
2022/01/06 06:52:26;;;;;;;4.05;1.35;;;1.20;99.90;;;;;;4943464;28;20031;-76
2022/01/06 06:54:54;;;;;;;4.63;1.73;;;1.20;99.90;;;;;;4943437;28;20035;-74
2022/01/06 06:57:20;;;;;;;2.92;1.38;;;1.20;99.90;;;;;;4940974;28;20535;-76
2022/01/06 06:59:45;;;;;;;4.45;1.60;;;1.20;99.90;;;;;;4943031;28;20118;-75
2022/01/06 07:02:11;;;;;;;4.03;1.20;;;1.20;99.90;;;;;;4943091;28;20027;-76
2022/01/06 07:04:36;;;;;;;1.95;1.00;;;1.20;99.90;;;;;;4943031;29;20432;-77
2022/01/06 07:07:02;;;;;;;6.40;1.67;;;1.20;99.90;;;;;;4942832;29;20428;-77
2022/01/06 07:09:27;;;;;;;8.93;1.92;;;1.20;99.90;;;;;;4936243;28;20031;-75
2022/01/06 07:11:53;;;;;;;;;;;1.30;99.90;;;;;;4943856;28;20067;-75
2022/01/06 07:14:18;;;;;;;9.48;1.90;;;1.30;99.90;;;;;;4944407;28;19969;-75
2022/01/06 07:16:44;;;;;;;3.20;1.42;;;1.30;99.90;;;;;;4944478;28;20144;-74
2022/01/06 07:19:09;;;;;;;6.38;1.67;;;1.30;99.90;;;;;;4942544;28;20510;-75
2022/01/06 07:21:34;;;;;;;;;;;1.30;99.90;;;;;;4943007;28;20115;-74
2022/01/06 07:24:00;;;;;;;4.20;1.08;;;1.30;99.90;;;;;;4944591;28;20288;-74
2022/01/06 07:26:26;;;;;;;1.92;1.13;;;1.30;99.90;;;;;;4942703;28;20455;-74
2022/01/06 07:28:51;;;;;;;;;;;1.30;99.90;;;;;;4943316;28;20044;-74
2022/01/06 07:31:16;;;;;;;5.45;1.60;;;1.30;99.90;;;;;;4941804;28;19992;-75
2022/01/06 07:33:42;;;;;;;5.55;1.35;;;1.30;99.90;;;;;;4943592;29;20482;-78
2022/01/06 07:36:08;;;;;;;3.35;1.30;;;1.30;99.90;;;;;;4943769;28;20039;-78
2022/01/06 07:38:33;;;;;;;5.57;1.95;;;1.20;99.90;;;;;;4942637;28;20340;-79
2022/01/06 07:40:59;;;;;;;4.40;1.45;;;1.20;99.90;;;;;;4943672;28;20043;-78
2022/01/06 07:43:24;;;;;;;4.90;1.83;;;1.20;99.90;;;;;;4943135;28;20028;-77
2022/01/06 07:45:50;;;;;;;;;;;1.20;99.90;;;;;;4942402;28;20044;-73
2022/01/06 07:48:18;;;;;;;6.63;2.03;;;1.10;99.90;;;;;;4942197;28;20001;-76
2022/01/06 07:50:45;;;;;;;6.45;1.75;;;1.10;99.90;;;;;;4943313;28;20483;-76
2022/01/06 07:53:11;;;;;;;3.03;1.23;;;1.10;99.90;;;;;;4944049;28;20125;-76
2022/01/06 07:55:37;;;;;;;2.25;1.08;;;1.20;99.90;;;;;;4943993;28;20476;-77
2022/01/06 07:58:02;;;;;;;;;;;1.10;99.90;;;;;;4942610;28;20059;-77
2022/01/06 08:00:28;;;;;;;4.20;1.13;;;1.10;99.90;;;;;;4943354;28;19944;-78
2022/01/06 08:02:53;;;;;;;5.22;1.02;;;1.20;99.90;;;;;;4942761;28;20035;-78
2022/01/06 08:05:22;;;;;;;7.32;2.10;;;1.20;99.90;;;;;;4943508;28;20035;-77
2022/01/06 08:07:48;;;;;;;9.65;3.20;;;1.20;99.90;;;;;;4943518;28;20055;-77
2022/01/06 08:10:13;;;;;;;6.05;1.45;;;1.20;99.90;;;;;;4941834;28;20069;-76
2022/01/06 08:12:39;;;;;;;;;;;1.20;99.90;;;;;;4943059;28;20430;-76
2022/01/06 08:15:05;;;;;;;7.95;1.40;;;1.20;99.90;;;;;;4943155;28;19910;-76
2022/01/06 08:17:31;;;;;;;6.95;1.95;;;1.20;99.90;;;;;;4942909;28;20191;-78
2022/01/06 08:19:57;;;;;;;7.03;1.73;;;1.20;99.90;;;;;;4942321;28;20484;-77
2022/01/06 08:22:23;;;;;;;7.00;1.50;;;1.20;99.90;;;;;;4943649;28;20163;-78
2022/01/06 08:24:49;;;;;;;2.47;0.98;;;1.20;99.90;;;;;;4944667;28;20122;-77
2022/01/06 08:27:14;;;;;;;4.45;1.80;;;1.20;99.90;;;;;;4942833;28;20377;-76
2022/01/06 08:29:41;;;;;;;5.65;1.42;;;1.30;99.90;;;;;;4941917;28;20370;-75
2022/01/06 08:32:07;;;;;;;7.70;1.40;;;1.30;99.90;;;;;;4943907;28;20046;-80
2022/01/06 08:34:34;;;;;;;3.17;0.88;;;1.30;99.90;;;;;;4942699;28;20024;-78
2022/01/06 08:37:00;;;;;;;2.50;0.70;;;1.30;99.90;;;;;;4942539;28;20081;-78
2022/01/06 08:39:25;;;;;;;5.07;1.17;;;1.30;99.90;;;;;;4941050;28;20027;-73
2022/01/06 08:41:52;;;;;;;4.00;1.55;;;1.30;99.90;;;;;;4941454;28;20042;-72
2022/01/06 08:44:17;;;;;;;4.63;1.50;;;1.30;99.90;;;;;;4941053;28;20023;-78
2022/01/06 08:46:43;;;;;;;8.23;1.85;;;1.30;99.90;;;;;;4943082;28;20025;-73
2022/01/06 08:49:11;;;;;;;3.40;1.08;;;1.30;99.90;;;;;;4940564;28;20522;-76
2022/01/06 08:51:38;;;;;;;4.55;1.38;;;1.40;99.90;;;;;;4942039;28;20031;-76
2022/01/06 08:54:04;;;;;;;5.43;1.10;;;1.40;99.90;;;;;;4942623;29;20027;-74
2022/01/06 08:56:29;;;;;;;4.07;1.30;;;1.50;99.90;;;;;;4942144;28;20526;-75
2022/01/06 08:58:55;;;;;;;6.60;1.88;;;1.50;99.90;;;;;;4942719;28;20028;-75
2022/01/06 09:01:21;;;;;;;5.90;1.38;;;1.50;99.90;;;;;;4941229;28;20463;-74
2022/01/06 09:03:46;;;;;;;3.72;1.38;;;1.60;99.90;;;;;;4942283;28;20122;-74
2022/01/06 09:06:12;;;;;;;2.45;1.15;;;1.60;99.90;;;;;;4940433;28;20040;-74
2022/01/06 09:08:37;;;;;;;3.47;1.77;;;1.60;99.90;;;;;;4941592;28;20028;-74
2022/01/06 09:11:03;;;;;;;11.57;1.73;;;1.70;99.90;;;;;;4941509;29;20164;-74
2022/01/06 09:13:28;;;;;;;4.63;1.77;;;1.70;99.90;;;;;;4941121;28;20119;-73
2022/01/06 09:15:54;;;;;;;8.10;1.27;;;1.80;99.90;;;;;;4941604;28;20110;-73
2022/01/06 09:18:19;;;;;;;6.10;1.90;;;1.80;99.90;;;;;;4941911;28;20110;-78
2022/01/06 09:20:45;;;;;;;4.45;1.92;;;1.90;99.90;;;;;;4941226;29;20038;-75
2022/01/06 09:23:11;;;;;;;5.90;2.03;;;1.90;99.90;;;;;;4940402;28;20023;-75
2022/01/06 09:25:36;;;;;;;4.57;1.50;;;2.00;99.90;;;;;;4942194;28;20046;-75
2022/01/06 09:28:02;;;;;;;4.68;1.35;;;2.00;99.90;;;;;;4942494;28;20027;-77
2022/01/06 09:30:27;;;;;;;7.13;1.75;;;2.10;99.90;;;;;;4944405;28;20027;-78
2022/01/06 09:32:56;;;;;;;4.90;1.40;;;2.10;99.90;;;;;;4942101;28;20403;-76
2022/01/06 09:35:22;;;;;;;4.70;2.70;;;2.20;99.90;;;;;;4941651;28;20071;-75
2022/01/06 09:37:47;;;;;;;5.03;1.80;;;2.30;99.90;;;;;;4940991;29;20148;-73
2022/01/06 09:40:13;;;;;;;5.82;1.95;;;2.30;99.90;;;;;;4941113;28;20070;-75
2022/01/06 09:42:42;;;;;;;11.85;2.55;;;2.40;99.90;;;;;;4941905;28;20038;-78
2022/01/06 09:45:08;;;;;;;6.38;1.77;;;2.50;99.90;;;;;;4939706;28;20043;-77
2022/01/06 09:47:34;;;;;;;;;;;2.50;99.90;;;;;;4941010;28;20023;-78
2022/01/06 09:50:00;;;;;;;6.68;3.00;;;2.60;99.90;;;;;;4940916;28;19917;-79
2022/01/06 09:52:25;;;;;;;7.10;1.98;;;2.70;99.90;;;;;;4941962;28;20459;-79
2022/01/06 09:54:51;;;;;;;7.88;1.90;;;2.70;99.90;;;;;;4941482;28;22242;-79
2022/01/06 09:57:17;;;;;;;5.05;1.92;;;2.80;99.90;;;;;;4940411;28;20039;-79
2022/01/06 09:59:44;;;;;;;8.05;2.25;;;2.80;99.90;;;;;;4940759;29;20488;-78
2022/01/06 10:02:16;;;;;;;5.40;2.03;;;2.80;99.90;;;;;;4941027;28;20027;-78
2022/01/06 10:04:47;;;;;;;2.78;1.63;;;2.90;99.90;;;;;;4940315;28;20484;-78
2022/01/06 10:07:16;;;;;;;6.90;1.67;;;3.00;99.90;;;;;;4940900;28;20119;-79
2022/01/06 10:09:42;;;;;;;6.90;2.13;;;3.10;99.90;;;;;;4942390;28;20031;-81
2022/01/06 10:12:11;;;;;;;3.92;2.03;;;3.20;99.90;;;;;;4955993;23;20054;-74
2022/01/06 10:14:43;;;;;;;13.13;2.67;;;3.20;99.90;;;;;;4942663;28;20448;-75
2022/01/06 10:17:10;;;;;;;4.57;2.17;;;3.30;99.90;;;;;;4942109;28;20440;-74
2022/01/06 10:19:40;;;;;;;7.88;2.65;;;3.30;99.90;;;;;;4941070;28;20031;-75
2022/01/06 10:22:12;;;;;;;6.82;2.08;;;3.30;99.90;;;;;;4944995;28;20103;-74
2022/01/06 10:24:37;;;;;;;10.90;2.70;;;3.30;99.90;;;;;;4944797;28;20023;-74
2022/01/06 10:27:06;;;;;;;3.53;1.63;;;3.30;99.90;;;;;;4944705;29;20511;-77
2022/01/06 10:29:37;;;;;;;3.85;1.88;;;3.30;99.90;;;;;;4943982;28;20040;-72
2022/01/06 10:32:07;;;;;;;3.38;1.98;;;3.30;99.90;;;;;;4946075;28;20511;-73
2022/01/06 10:34:36;;;;;;;8.00;3.67;;;3.30;99.90;;;;;;4944629;29;20039;-73
2022/01/06 10:37:05;;;;;;;9.65;2.85;;;3.40;99.90;;;;;;4946413;29;20114;-75
2022/01/06 10:39:42;;;;;;;5.97;2.28;;;3.40;99.90;;;;;;4945314;28;20019;-73
2022/01/06 10:42:08;;;;;;;10.60;2.65;;;3.40;99.90;;;;;;4944896;29;20575;-73
2022/01/06 10:44:51;;;;;;;7.68;2.72;;;3.40;99.90;;;;;;4944200;29;20416;-72
2022/01/06 10:47:31;;;;;;;7.65;2.22;;;3.40;99.90;;;;;;4946254;29;20030;-73
2022/01/06 10:50:16;;;;;;;3.78;1.77;;;3.40;99.90;;;;;;4943940;29;20028;-73
2022/01/06 10:52:46;;;;;;;8.80;2.35;;;3.50;99.90;;;;;;4944812;28;20503;-72
2022/01/06 10:55:20;;;;;;;6.68;1.77;;;3.50;99.90;;;;;;4945299;28;20031;-73
2022/01/06 10:57:55;;;;;;;7.93;2.47;;;3.50;99.90;;;;;;4944696;29;20469;-75
2022/01/06 11:00:22;;;;;;;6.47;2.15;;;3.60;99.90;;;;;;4942352;29;20070;-73
2022/01/06 11:02:48;;;;;;;5.88;1.65;;;3.60;99.90;;;;;;4944913;28;20058;-71
2022/01/06 11:05:13;;;;;;;12.48;2.38;;;3.70;99.90;;;;;;4944106;28;20047;-73
2022/01/06 11:07:40;;;;;;;6.28;2.03;;;3.60;99.90;;;;;;4943489;28;20051;-73
2022/01/06 11:10:14;;;;;;;5.65;1.63;;;3.70;99.90;;;;;;4943469;28;20043;-72
2022/01/06 11:12:39;;;;;;;4.38;1.48;;;3.70;99.90;;;;;;4943588;28;20042;-73
2022/01/06 11:15:06;;;;;;;9.63;2.78;;;3.60;99.90;;;;;;4942967;29;20031;-73
2022/01/06 11:17:32;;;;;;;5.07;1.63;;;3.70;99.90;;;;;;4944315;29;20139;-73
2022/01/06 11:19:58;;;;;;;7.57;2.22;;;3.70;99.90;;;;;;4942387;29;20118;-71
2022/01/06 11:22:25;;;;;;;8.05;1.75;;;3.80;99.90;;;;;;4942631;29;20039;-72
2022/01/06 11:24:55;;;;;;;5.70;1.65;;;3.80;99.90;;;;;;4940065;29;20046;-71
2022/01/06 11:27:32;;;;;;;5.78;2.47;;;3.80;99.90;;;;;;4942472;28;20039;-71
2022/01/06 11:30:09;;;;;;;10.55;1.95;;;3.90;99.90;;;;;;4942449;29;20055;-73
2022/01/06 11:32:34;;;;;;;4.60;1.20;;;3.90;99.90;;;;;;4942732;28;20107;-73
2022/01/06 11:35:11;;;;;;;5.43;1.63;;;3.90;99.90;;;;;;4942187;29;20428;-73
2022/01/06 11:37:45;;;;;;;5.70;1.85;;;3.90;99.90;;;;;;4943125;28;20379;-73
2022/01/06 11:40:13;;;;;;;4.75;1.67;;;3.90;99.90;;;;;;4942283;29;20064;-73
2022/01/06 11:42:39;;;;;;;6.13;1.38;;;3.90;99.90;;;;;;4942597;28;20095;-72
2022/01/06 11:45:06;;;;;;;8.20;3.22;;;3.90;99.90;;;;;;4941670;29;20114;-73
2022/01/06 11:47:37;;;;;;;5.90;2.50;;;3.90;99.90;;;;;;4944191;29;20115;-73
2022/01/06 11:50:13;;;;;;;5.88;2.30;;;3.90;99.90;;;;;;4943241;29;20279;-73
2022/01/06 11:52:50;;;;;;;8.13;2.13;;;3.90;99.90;;;;;;4942363;28;20028;-72
2022/01/06 11:55:16;;;;;;;6.68;2.20;;;4.00;99.90;;;;;;4943125;28;20050;-72
2022/01/06 11:57:42;;;;;;;8.05;2.25;;;4.00;99.90;;;;;;4943545;28;20433;-73
2022/01/06 12:00:27;;;;;;;7.38;2.33;;;4.00;99.90;;;;;;4941575;28;20723;-73
2022/01/06 12:03:10;;;;;;;7.45;2.35;;;4.10;99.90;;;;;;4942118;28;20307;-73
2022/01/06 12:05:52;;;;;;;10.77;2.30;;;4.10;99.90;;;;;;4942415;28;20027;-74
2022/01/06 12:08:21;;;;;;;9.45;4.38;;;4.10;99.90;;;;;;4942147;29;20484;-65
2022/01/06 12:10:49;;;;;;;14.95;4.55;;;4.70;99.90;;;;;;4942122;28;20083;-72
2022/01/06 12:13:15;;;;;;;13.13;2.47;;;5.40;99.90;;;;;;4942684;28;20028;-71
2022/01/06 12:16:01;;;;;;;8.55;2.60;;;5.40;99.90;;;;;;4941015;28;20028;-72
2022/01/06 12:18:29;;;;;;;7.15;2.50;;;5.10;99.90;;;;;;4942387;29;20031;-73
2022/01/06 12:20:56;;;;;;;6.95;3.20;;;4.90;99.90;;;;;;4944214;29;20066;-73
2022/01/06 12:23:22;;;;;;;5.70;2.97;;;4.70;99.90;;;;;;4943574;28;20031;-73
2022/01/06 12:25:58;;;;;;;10.20;2.75;;;4.60;99.90;;;;;;4942626;28;20469;-71
2022/01/06 12:28:24;;;;;;;;;;;4.50;99.90;;;;;;4943440;29;20027;-72
2022/01/06 12:30:50;;;;;;;6.90;3.75;;;4.60;99.90;;;;;;4941771;29;19977;-72
2022/01/06 12:33:20;;;;;;;5.68;2.50;;;4.60;99.90;;;;;;4941550;28;20031;-72
2022/01/06 12:35:51;;;;;;;11.10;3.25;;;4.50;99.90;;;;;;4941942;28;20046;-73
2022/01/06 12:38:25;;;;;;;9.68;3.50;;;4.50;99.90;;;;;;4941482;29;20049;-73
2022/01/06 12:40:51;;;;;;;10.48;2.95;;;4.50;99.90;;;;;;4942813;29;20035;-72
2022/01/06 12:43:22;;;;;;;7.80;3.85;;;4.50;99.90;;;;;;4941458;29;20384;-74
2022/01/06 12:46:04;;;;;;;8.02;2.72;;;4.50;99.90;;;;;;4943201;29;20061;-74
2022/01/06 12:48:32;;;;;;;9.48;2.40;;;4.50;99.90;;;;;;4941295;29;20359;-75
2022/01/06 12:50:59;;;;;;;8.95;3.15;;;4.50;99.90;;;;;;4941179;28;20027;-77
2022/01/06 12:53:33;;;;;;;7.63;2.75;;;4.40;99.90;;;;;;4942305;28;20027;-74
2022/01/06 12:55:59;;;;;;;12.35;4.25;;;4.40;99.90;;;;;;4943319;29;20035;-73
2022/01/06 12:58:33;;;;;;;9.95;4.10;;;4.30;99.90;;;;;;4941425;29;20118;-75
2022/01/06 13:01:02;;;;;;;12.75;3.00;;;4.30;99.90;;;;;;4941594;29;20043;-73
2022/01/06 13:03:40;;;;;;;15.43;3.00;;;4.40;99.90;;;;;;4941491;29;20403;-72
2022/01/06 13:06:12;;;;;;;9.57;2.55;;;4.30;99.90;;;;;;4941111;28;20182;-72
2022/01/06 13:08:55;;;;;;;14.60;3.70;;;4.40;99.90;;;;;;4942670;29;20043;-72
2022/01/06 13:11:23;;;;;;;9.93;3.28;;;4.40;99.90;;;;;;4941584;28;20034;-71